Rapports des METAR proches

 

LFAQ - Bray, France
Distance from station: SSO 19km
Mise à jour: 27/09/2020 07:30
Crachin léger, Couvert
Crachin léger, Couvert
 Vent NO
Vent: NO 41 km/h
Température: 11°C
Point de rosée: 10°C
Humidité: 94%
Baromètre: 1001 hPa
Résumé: Light Drizzle
Clouds: Couvert
Visibility: 9 km
Cloud details: Couvert 274 m
2020/09/27 05:30 LFAQ 270530Z AUTO 32022KT 9000 -DZ OVC009 11/10 Q1001 TEMPO 31025G40KT 4000 RA BR
LFQQ - Lille/Lesquin, France
Distance from station: NNE 53km
Mise à jour: 27/09/2020 07:30
Pluie faible, Brume, Couvert
Pluie faible, Brume, Couvert
 Vent NO
Vent: NO 43 km/h, Rafale: 67 km/h
Température: 13°C
Point de rosée: 12°C
Humidité: 94%
Baromètre: 999 hPa
Résumé: Pluie faible, Brume
Clouds: Couvert
Visibility: 5 km
Cloud details: Couvert 213 m
2020/09/27 05:30 LFQQ 270530Z AUTO 32023G36KT 4600 -RA BR OVC007 13/12 Q0999 TEMPO RA
EBCV - Chievres Ab, Belgium
Distance from station: NE 88km
Mise à jour: 26/09/2020 06:25
Pas à jour

 Vent ONO
Vent: ONO 33 km/h
Température: 10°C
Température au vent: 6°C
Point de rosée: 9°C
Humidité: 94%
Baromètre: 1000 hPa
2020/09/26 04:25 EBCV 260425Z AUTO 29018KT //// /// 10/09 Q1000
 
LFOB - Beauvais/Tille(A, France
Distance from station: SSO 88km
Mise à jour: 27/09/2020 07:30
Couvert
Couvert
 Vent NO
Vent: NO 37 km/h
Température: 10°C
Température au vent: 6°C
Point de rosée: 9°C
Humidité: 94%
Baromètre: 1003 hPa
Clouds: Couvert
Visibility: 10 km
Cloud details: Couvert 335 m
2020/09/27 05:30 LFOB 270530Z AUTO 31020KT 9999 OVC011 10/09 Q1003 TEMPO 3000 RA BKN007 BECMG 31025G35KT
LFAT - Le Touquet/P. Pl, France
Distance from station: ONO 93km
Mise à jour: 27/09/2020 07:30
Pluie faible, Orage
Pluie faible, Orage
 Vent NNO
Vent: NNO 44 km/h
Température: 11°C
Point de rosée: 10°C
Humidité: 94%
Baromètre: 1005 hPa
Résumé: Pluie faible
Clouds: Orage
Visibility: 7 km
Cloud details: Couvert 366 m
2020/09/27 05:30 LFAT 270530Z AUTO 34024KT 7000 -RA OVC012/// ///TCU 11/10 Q1005 TEMPO 4000 RA BECMG 34025G40KT
EBFN - Koksijde (bel-Af, Belgium
Distance from station: N 105km
Mise à jour: 27/09/2020 07:55
Heavy drizzle, Couvert
Heavy drizzle, Couvert
 Vent N
Vent: N 46 km/h, Rafale: 67 km/h
Température: 14°C
Point de rosée: 13°C
Humidité: 94%
Baromètre: 1002 hPa
Résumé: Heavy Drizzle
Clouds: Couvert
Visibility: 6 km
Cloud details: Couvert 274 m
2020/09/27 05:55 EBFN 270555Z AUTO 35025G36KT 6000 +DZ OVC009/// 14/13 Q1002 GRN
 
EBOS - Oostende Airport, Belgium
Distance from station: N 119km
Mise à jour: 27/09/2020 07:50
Pluie faible, Crachin, Brume, Très nuageux
Pluie faible, Crachin, Brume, Très nuageux
 Vent N
Vent: N 44 km/h, Rafale: 67 km/h
Température: 14°C
Point de rosée: 13°C
Humidité: 94%
Baromètre: 1001 hPa
Résumé: Pluie faible, Crachin, Brume
Clouds: Très nuageux
Visibility: 3 km
Cloud details: Quelques nuages 152 m
Très nuageux 213 m
Très nuageux 457 m
2020/09/27 05:50 EBOS 270550Z 36024G36KT 3200 -RADZ BR FEW005 BKN007 BKN015 14/13 Q1001 TEMPO 2500 RADZ
EBCI - Charleroi/Gossel, Belgium
Distance from station: ENE 124km
Mise à jour: 27/09/2020 07:50
Pluie faible, Très nuageux
Pluie faible, Très nuageux
 Vent N
Vent: N 24 km/h, Rafale: 44 km/h
Température: 14°C
Point de rosée: 13°C
Humidité: 94%
Baromètre: 995 hPa
Résumé: Pluie faible
Clouds: Très nuageux
Visibility: 8 km
Cloud details: Quelques nuages 122 m
Très nuageux 183 m
2020/09/27 05:50 EBCI 270550Z 35013G24KT 8000 -RA FEW004 BKN006 14/13 Q0995 TEMPO 3000 SHRA BKN004
LFPG - Charles De Gaull, France
Distance from station: S 125km
Mise à jour: 27/09/2020 07:30
Pluie faible, Très nuageux
Pluie faible, Très nuageux
 Vent NO
Vent: NO 33 km/h
Température: 10°C
Température au vent: 6°C
Point de rosée: 9°C
Humidité: 94%
Baromètre: 1003 hPa
Résumé: Pluie faible
Clouds: Très nuageux
Visibility: 6 km
Cloud details: Très nuageux 366 m
2020/09/27 05:30 LFPG 270530Z 31018KT 6000 -RA BKN012 10/09 Q1003 NOSIG
 
LFPT - Cormeilles Vexin, France
Distance from station: SSO 127km
Mise à jour: 27/09/2020 07:30
Couvert
Couvert
 Vent NO
Vent: NO 31 km/h
Température: 10°C
Température au vent: 7°C
Point de rosée: 9°C
Humidité: 94%
Baromètre: 1004 hPa
Clouds: Couvert
Visibility: 10 km
Cloud details: Couvert 366 m
2020/09/27 05:30 LFPT 270530Z AUTO 32017KT 9999 OVC012 10/09 Q1004
LFPB - Paris/Le Bourget, France
Distance from station: S 132km
Mise à jour: 27/09/2020 07:30
Pluie faible, Orage
Pluie faible, Orage
 Vent ONO
Vent: ONO 22 km/h
Température: 10°C
Température au vent: 7°C
Point de rosée: 9°C
Humidité: 94%
Baromètre: 1003 hPa
Résumé: Pluie faible
Clouds: Orage
Visibility: 10 km
Cloud details: Couvert 457 m
2020/09/27 05:30 LFPB 270530Z AUTO 29012KT 250V320 9999 -RA OVC015/// ///TCU 10/09 Q1003 TEMPO 32020G35KT 4000 RA BKN009
EBFS - Florennes (bel-A, Belgium
Distance from station: E 133km
Mise à jour: 27/09/2020 07:55
Fortes pluies, Couvert
Fortes pluies, Couvert
 Vent N
Vent: N 26 km/h
Température: 13°C
Point de rosée: 13°C
Humidité: 100%
Baromètre: 995 hPa
Résumé: Fortes pluies
Clouds: Couvert
Visibility: 8 km
Cloud details: Partiellement nuageux 122 m
Couvert 183 m
2020/09/27 05:55 EBFS 270555Z AUTO 35014KT 8000 +RA SCT004/// OVC006/// 13/13 Q0995 YLO
 
LFQA - Reims/Prunay, France
Distance from station: SE 143km
Mise à jour: 27/09/2020 07:30
Pluie, Brume, Orage
Pluie, Brume, Orage
 Vent ONO
Vent: ONO 28 km/h
Température: 10°C
Température au vent: 7°C
Point de rosée: 9°C
Humidité: 94%
Baromètre: 997 hPa
Résumé: Pluie, Brume
Clouds: Orage
Visibility: 5 km
Cloud details: Très nuageux 274 m
Couvert 488 m
2020/09/27 05:30 LFQA 270530Z AUTO 29015KT 260V320 5000 RA BR BKN009/// OVC016/// ///TCU 10/09 Q0997
LFOP - Rouen/Boos (aut), France
Distance from station: SO 144km
Mise à jour: 27/09/2020 07:30
Pluie faible, Orage
Pluie faible, Orage
 Vent NO
Vent: NO 26 km/h
Température: 10°C
Température au vent: 7°C
Point de rosée: 8°C
Humidité: 88%
Baromètre: 1007 hPa
Résumé: Pluie faible
Clouds: Orage
Visibility: 10 km
Cloud details: Très nuageux 488 m
Très nuageux 640 m
Couvert 884 m
2020/09/27 05:30 LFOP 270530Z AUTO 32014KT 9999 -RA BKN016/// BKN021/// OVC029/// ///TCU 10/08 Q1007 TEMPO 32023G33KT RA BKN013
EBBR - Brussels Nationa, Belgium
Distance from station: NE 148km
Mise à jour: 27/09/2020 07:50
Très nuageux
Très nuageux
 Vent N
Vent: N 26 km/h
Température: 15°C
Point de rosée: 14°C
Humidité: 94%
Baromètre: 996 hPa
Clouds: Très nuageux
Visibility: 10 km
Cloud details: Très nuageux 274 m
Très nuageux 396 m
2020/09/27 05:50 EBBR 270550Z 35014KT 9999 BKN009 BKN013 15/14 Q0996 TEMPO 35015G25KT 4000 RA SCT007 BKN011
 
EBBE - Beauvechain (baf, Belgium
Distance from station: ENE 156km
Mise à jour: 27/09/2020 07:55
Très nuageux
Très nuageux
 Vent N
Vent: N 26 km/h
Température: 15°C
Point de rosée: 14°C
Humidité: 94%
Baromètre: 997 hPa
Clouds: Très nuageux
Visibility: 10 km
Cloud details: Quelques nuages 213 m
Partiellement nuageux 396 m
Très nuageux 640 m
2020/09/27 05:55 EBBE 270555Z AUTO 36014KT 9999 FEW007/// SCT013/// BKN021/// 15/14 Q0997 GRN
EHFS - Vlissingen, Netherlands
Distance from station: NNE 157km
Mise à jour: 27/09/2020 07:25
Pluie faible, Très nuageux
Pluie faible, Très nuageux
 Vent N
Vent: N 50 km/h, Rafale: 74 km/h
Température: 15°C
Point de rosée: 14°C
Humidité: 94%
Baromètre: 998 hPa
Résumé: Pluie faible
Clouds: Très nuageux
Visibility: 5 km
Cloud details: Partiellement nuageux 183 m
Très nuageux 213 m
Très nuageux 274 m
2020/09/27 05:25 EHFS 270525Z AUTO 35027G40KT 320V030 5000 -RA SCT006/// BKN007/// BKN009/// 15/14 Q0998
LFPV - Villacoublay/Vel, France
Distance from station: SSO 157km
Mise à jour: 27/09/2020 07:30
Pluie faible, Couvert
Pluie faible, Couvert
 Vent ONO
Vent: ONO 31 km/h
Température: 10°C
Température au vent: 7°C
Point de rosée: 8°C
Humidité: 88%
Baromètre: 1005 hPa
Résumé: Pluie faible
Clouds: Couvert
Visibility: 10 km
Cloud details: Couvert 305 m
2020/09/27 05:30 LFPV 270530Z AUTO 30017KT 270V330 9999 -RA OVC010 10/08 Q1005 TEMPO 31015G35KT 3000 RADZ
 
EGMD - Lydd Airport, United Kingdom
Distance from station: NO 160km
Mise à jour: 27/09/2020 07:50
Couvert
Couvert
 Vent NNO
Vent: NNO 41 km/h
Température: 10°C
Température au vent: 6°C
Point de rosée: 9°C
Humidité: 94%
Baromètre: 1007 hPa
Clouds: Couvert
Visibility: 10 km
Cloud details: Très nuageux 305 m
Couvert 975 m
2020/09/27 05:50 EGMD 270550Z AUTO 33022KT 9999 BKN010/// OVC032/// 10/09 Q1007